AIRPORT ID: U76

DATE: 2024-06-16 ZULU TIME: 15.55 LOCAL TIME: 9.55


METAR KU76 161555Z AUTO 29008KT 10SM 13/02 A3001

ALTIMETER: A3001 Q1016

DENSITY ALT: 3500 Ft

WIND DIRECT: 300

WIND SPEED: 8 Gust

WIND CONDITIONS:

VISIBILTY: 10SM 9999M

TEMPERATURE: 55 F 13 C

DEW POINT: 36 F 2 C

HUMID: 49%

LCL: 3,000-5,000 feet

RADIO CHECK: 1

ADVISARIES: 1

GREETINGS: 0

CONVERSATIONS: 1